Time;durP1;ratioP1;P1;durP2;ratioP2;P2;SDS_P1;SDS_P2;PMS_P1;PMS_P2;Temp;Humidity;BMP_temperature;BMP_pressure;BME280_temperature;BME280_humidity;BME280_pressure;Samples;Min_cycle;Max_cycle;Signal;HPM_P1;HPM_P2
2022/08/25 00:03:23;;;;;;;;;;;;;;;23.83;47.01;95830.91;10321454;28;3344;-53
2022/08/25 00:08:23;;;;;;;;;;;;;;;23.82;47.10;95824.81;10317114;28;3360;-53
2022/08/25 00:13:23;;;;;;;;;;;;;;;23.84;46.85;95827.97;10322020;28;3248;-55
2022/08/25 00:18:24;;;;;;;;;;;;;;;23.85;46.92;95821.59;10322253;28;3201;-52
2022/08/25 00:23:24;;;;;;;;;;;;;;;23.85;46.91;95821.59;10323668;28;3317;-51
2022/08/25 00:28:24;;;;;;;;;;;;;;;23.84;46.98;95821.91;10320033;28;3310;-51
2022/08/25 00:33:25;;;;;;;;;;;;;;;23.85;46.70;95824.25;10314710;28;3315;-52
2022/08/25 00:38:25;;;;;;;;;;;;;;;23.86;46.74;95817.88;10319588;28;3277;-54
2022/08/25 00:43:26;;;;;;;;;;;;;;;23.87;46.94;95823.94;10323191;28;3230;-52
2022/08/25 00:48:26;;;;;;;;;;;;;;;23.86;46.91;95804.66;10313985;28;3307;-51
2022/08/25 00:53:27;;;;;;;;;;;;;;;23.85;46.83;95811.00;10317026;28;3288;-54
2022/08/25 00:58:28;;;;;;;;;;;;;;;23.86;46.76;95809.16;10317514;28;3275;-53
2022/08/25 01:03:29;;;;;;;;;;;;;;;23.85;46.61;95803.06;10322623;28;3283;-51
2022/08/25 01:08:29;;;;;;;;;;;;;;;23.86;46.76;95798.56;10316659;28;3294;-53
2022/08/25 01:13:31;;;;;;;;;;;;;;;23.86;46.77;95799.34;10320579;28;3250;-51
2022/08/25 01:18:41;;;;;;;;;;;;;;;23.88;46.72;95793.75;10315724;28;2590;-54
2022/08/25 01:23:42;;;;;;;;;;;;;;;23.88;46.77;95791.13;10324941;28;3293;-54
2022/08/25 01:29:19;;;;;;;;;;;;;;;23.86;46.67;95796.72;10318338;28;3606;-51
2022/08/25 01:34:02;;;;;;;;;;;;;;;23.88;46.54;95797.19;10322756;28;3281;-53
2022/08/25 01:39:04;;;;;;;;;;;;;;;23.88;46.73;95796.41;10318852;28;2552;-52
2022/08/25 01:44:05;;;;;;;;;;;;;;;23.88;46.71;95801.69;10320902;28;3291;-51
2022/08/25 01:49:05;;;;;;;;;;;;;;;23.87;46.49;95795.63;10318596;28;3300;-52
2022/08/25 01:54:05;;;;;;;;;;;;;;;23.88;46.48;95789.25;10319336;28;3347;-50
2022/08/25 01:59:06;;;;;;;;;;;;;;;23.88;46.75;95786.63;10318744;28;2513;-54
2022/08/25 02:04:06;;;;;;;;;;;;;;;23.88;46.71;95786.63;10336397;28;3319;-54
2022/08/25 02:09:08;;;;;;;;;;;;;;;23.88;46.83;95788.47;10325008;28;3389;-52
2022/08/25 02:14:10;;;;;;;;;;;;;;;23.88;46.65;95799.84;10320563;28;3323;-51
2022/08/25 02:19:11;;;;;;;;;;;;;;;23.88;46.89;95797.19;10327741;28;3241;-52
2022/08/25 02:24:11;;;;;;;;;;;;;;;23.89;46.68;95787.38;10327013;28;3331;-53
2022/08/25 02:29:11;;;;;;;;;;;;;;;23.89;46.87;95788.16;10323322;28;3386;-52
2022/08/25 02:34:12;;;;;;;;;;;;;;;23.88;46.93;95789.25;10326420;28;3355;-50
2022/08/25 02:39:12;;;;;;;;;;;;;;;23.89;46.80;95782.06;10320521;28;2533;-52
2022/08/25 02:44:12;;;;;;;;;;;;;;;23.87;46.60;95784.22;10325125;28;3521;-54
2022/08/25 02:49:13;;;;;;;;;;;;;;;23.88;46.54;95785.81;10320363;28;2584;-54
2022/08/25 02:54:13;;;;;;;;;;;;;;;23.88;46.81;95781.31;10324728;28;3314;-53
2022/08/25 02:59:14;;;;;;;;;;;;;;;23.88;46.60;95773.38;10326949;28;3374;-52
2022/08/25 03:04:14;;;;;;;;;;;;;;;23.88;46.71;95767.28;10324399;28;3325;-53
2022/08/25 03:09:14;;;;;;;;;;;;;;;23.87;46.83;95773.66;10318676;28;3418;-51
2022/08/25 03:14:18;;;;;;;;;;;;;;;23.87;46.55;95769.16;10319091;28;3264;-53
2022/08/25 03:19:19;;;;;;;;;;;;;;;23.87;46.70;95771.78;10326396;28;3496;-53
2022/08/25 03:24:19;;;;;;;;;;;;;;;23.88;46.44;95767.28;10319956;28;3276;-54
2022/08/25 03:29:23;;;;;;;;;;;;;;;23.87;46.50;95769.16;10325132;28;3265;-52
2022/08/25 03:34:23;;;;;;;;;;;;;;;23.87;46.74;95765.72;10323531;28;3312;-54
2022/08/25 03:39:24;;;;;;;;;;;;;;;23.88;46.58;95756.69;10316674;28;3384;-55
2022/08/25 03:44:24;;;;;;;;;;;;;;;23.87;46.50;95763.84;10318449;28;3356;-52
2022/08/25 03:49:24;;;;;;;;;;;;;;;23.87;46.40;95755.91;10320456;28;3257;-55
2022/08/25 03:54:26;;;;;;;;;;;;;;;23.86;46.29;95754.34;10320373;28;2537;-55
2022/08/25 03:59:26;;;;;;;;;;;;;;;23.86;46.43;95746.41;10318385;28;3299;-51
2022/08/25 04:04:27;;;;;;;;;;;;;;;23.87;46.34;95757.75;10321812;28;3594;-54
2022/08/25 04:09:27;;;;;;;;;;;;;;;23.87;46.29;95758.56;10313183;28;3332;-51
2022/08/25 04:14:28;;;;;;;;;;;;;;;23.86;46.31;95762.28;10319383;28;2548;-54
2022/08/25 04:19:28;;;;;;;;;;;;;;;23.86;46.35;95758.84;10324360;28;3388;-52
2022/08/25 04:24:28;;;;;;;;;;;;;;;23.87;46.65;95763.84;10318836;28;2573;-52
2022/08/25 04:29:29;;;;;;;;;;;;;;;23.85;46.41;95763.34;10313993;28;2688;-50
2022/08/25 04:34:30;;;;;;;;;;;;;;;23.87;46.27;95763.06;10325557;28;3230;-52
2022/08/25 04:39:30;;;;;;;;;;;;;;;23.87;46.28;95760.41;10321707;28;2563;-52
2022/08/25 04:44:32;;;;;;;;;;;;;;;23.87;46.28;95755.91;10321821;28;3393;-51
2022/08/25 04:49:32;;;;;;;;;;;;;;;23.87;46.31;95760.41;10325330;28;3358;-53
2022/08/25 04:54:32;;;;;;;;;;;;;;;23.86;46.42;95757.00;10318000;28;3288;-50
2022/08/25 04:59:33;;;;;;;;;;;;;;;23.86;46.39;95759.66;10317541;28;3286;-53
2022/08/25 05:04:33;;;;;;;;;;;;;;;23.86;46.15;95746.41;10317882;28;3301;-53
2022/08/25 05:09:34;;;;;;;;;;;;;;;23.86;46.27;95745.63;10322197;28;3340;-54
2022/08/25 05:14:34;;;;;;;;;;;;;;;23.86;46.36;95757.00;10321237;28;3249;-53
2022/08/25 05:19:35;;;;;;;;;;;;;;;23.86;46.20;95750.91;10319951;28;3252;-54
2022/08/25 05:24:35;;;;;;;;;;;;;;;23.86;46.39;95748.28;10317399;28;3353;-51
2022/08/25 05:29:35;;;;;;;;;;;;;;;23.87;46.14;95755.91;10315876;28;3260;-50
2022/08/25 05:34:36;;;;;;;;;;;;;;;23.87;46.33;95750.63;10322746;28;3230;-53
2022/08/25 05:39:36;;;;;;;;;;;;;;;23.87;46.37;95747.97;10329518;28;3296;-51
2022/08/25 05:44:37;;;;;;;;;;;;;;;23.87;46.24;95742.66;10319138;28;3345;-54
2022/08/25 05:49:47;;;;;;;;;;;;;;;23.87;46.25;95747.97;10319342;28;2485;-52
2022/08/25 05:54:47;;;;;;;;;;;;;;;23.87;47.46;95752.47;10322575;28;3386;-54
2022/08/25 05:59:57;;;;;;;;;;;;;;;23.87;47.53;95753.25;10320870;28;3341;-53
2022/08/25 06:05:07;;;;;;;;;;;;;;;23.86;47.57;95749.06;10323132;28;3293;-54
2022/08/25 06:10:18;;;;;;;;;;;;;;;23.86;47.93;95733.19;10323924;28;2557;-54
2022/08/25 06:15:25;;;;;;;;;;;;;;;23.86;47.97;95735.03;10324563;28;2517;-52
2022/08/25 06:20:35;;;;;;;;;;;;;;;23.87;47.89;95726.78;10322015;28;3334;-49
2022/08/25 06:25:35;;;;;;;;;;;;;;;23.86;48.02;95724.44;10320484;28;3399;-53
2022/08/25 06:30:37;;;;;;;;;;;;;;;23.86;48.12;95727.88;10322640;28;3325;-48
2022/08/25 06:35:40;;;;;;;;;;;;;;;23.86;48.08;95730.53;10323198;28;2599;-50
2022/08/25 06:40:40;;;;;;;;;;;;;;;23.87;47.58;95726.00;10316578;28;3692;-48
2022/08/25 06:45:44;;;;;;;;;;;;;;;23.88;48.17;95738.16;10322347;28;3258;-51
2022/08/25 06:50:55;;;;;;;;;;;;;;;23.87;48.07;95737.38;10321803;28;3376;-54
2022/08/25 06:56:05;;;;;;;;;;;;;;;23.87;47.46;95747.97;10314955;28;2520;-52
2022/08/25 07:01:15;;;;;;;;;;;;;;;23.88;47.86;95743.47;10319573;28;3446;-51
2022/08/25 07:06:19;;;;;;;;;;;;;;;23.88;47.89;95738.16;10321908;28;3348;-52
2022/08/25 07:11:23;;;;;;;;;;;;;;;23.89;48.05;95740.50;10322965;28;3218;-52
2022/08/25 07:16:24;;;;;;;;;;;;;;;23.89;48.18;95740.50;10319586;28;3570;-53
2022/08/25 07:21:29;;;;;;;;;;;;;;;23.90;48.34;95736.81;10318419;28;3340;-54
2022/08/25 07:26:30;;;;;;;;;;;;;;;23.90;48.56;95750.03;10319500;28;2669;-54
2022/08/25 07:31:31;;;;;;;;;;;;;;;23.89;48.33;95732.56;10318462;28;3234;-52
2022/08/25 07:36:31;;;;;;;;;;;;;;;23.91;48.23;95735.72;10319379;28;3294;-53
2022/08/25 07:41:33;;;;;;;;;;;;;;;23.91;48.54;95738.34;10314756;28;3277;-52
2022/08/25 07:46:35;;;;;;;;;;;;;;;23.91;48.65;95733.06;10318213;28;3261;-51
2022/08/25 07:51:35;;;;;;;;;;;;;;;23.91;48.42;95734.91;10323432;28;3345;-52
2022/08/25 07:56:35;;;;;;;;;;;;;;;23.91;48.51;95738.34;10313991;28;3456;-53
2022/08/25 08:01:36;;;;;;;;;;;;;;;23.93;48.25;95735.41;10320628;28;3350;-53
2022/08/25 08:06:37;;;;;;;;;;;;;;;23.94;48.38;95750.22;10320056;28;2517;-53
2022/08/25 08:11:43;;;;;;;;;;;;;;;23.94;48.74;95751.03;10319646;28;3322;-53
2022/08/25 08:16:43;;;;;;;;;;;;;;;23.95;48.86;95743.84;10318311;28;3250;-54
2022/08/25 08:21:48;;;;;;;;;;;;;;;23.94;48.46;95745.72;10322769;28;3400;-52
2022/08/25 08:26:50;;;;;;;;;;;;;;;23.95;48.44;95741.97;10314300;28;3314;-53
2022/08/25 08:31:50;;;;;;;;;;;;;;;23.96;48.57;95738.28;10314444;28;2576;-53
2022/08/25 08:36:55;;;;;;;;;;;;;;;23.97;48.37;95729.22;10314384;28;3225;-53
2022/08/25 08:42:17;;;;;;;;;;;;;;;23.98;48.59;95738.75;10318129;28;3252;-51
2022/08/25 08:47:41;;;;;;;;;;;;;;;23.99;48.57;95724.41;10318990;28;3389;-52
2022/08/25 08:52:43;;;;;;;;;;;;;;;24.02;48.40;95729.13;10316297;28;3311;-51
2022/08/25 08:57:43;;;;;;;;;;;;;;;24.02;48.68;95717.75;10316903;28;3353;-52
2022/08/25 09:02:51;;;;;;;;;;;;;;;24.02;48.47;95718.56;10317487;28;3308;-48
2022/08/25 09:08:00;;;;;;;;;;;;;;;24.04;48.52;95711.13;10331894;28;3431;-53
2022/08/25 09:13:03;;;;;;;;;;;;;;;24.05;48.60;95704.72;10298880;28;3257;-52
2022/08/25 09:18:07;;;;;;;;;;;;;;;24.06;49.09;95703.66;10317982;28;2663;-51
2022/08/25 09:23:26;;;;;;;;;;;;;;;24.06;48.91;95713.47;10318478;28;3240;-53
2022/08/25 09:28:45;;;;;;;;;;;;;;;24.06;48.89;95705.53;10316856;28;3319;-53
2022/08/25 09:33:45;;;;;;;;;;;;;;;24.07;48.55;95713.16;10308705;28;3317;-50
2022/08/25 09:38:46;;;;;;;;;;;;;;;24.09;48.77;95702.31;10316084;28;3265;-51
2022/08/25 09:43:52;;;;;;;;;;;;;;;24.11;49.09;95689.53;10317232;28;3421;-53
2022/08/25 09:48:54;;;;;;;;;;;;;;;24.12;49.00;95696.38;10314185;28;3599;-50
2022/08/25 09:54:04;;;;;;;;;;;;;;;24.12;48.80;95693.75;10319456;28;3280;-52
2022/08/25 09:59:32;;;;;;;;;;;;;;;24.10;48.76;95688.75;10313641;28;3298;-52
2022/08/25 10:04:38;;;;;;;;;;;;;;;24.12;48.71;95681.28;10315758;28;2596;-52
2022/08/25 10:09:40;;;;;;;;;;;;;;;24.11;48.85;95669.13;10310916;28;2505;-51
2022/08/25 10:14:42;;;;;;;;;;;;;;;24.12;48.89;95670.69;10316177;28;4025;-53
2022/08/25 10:19:43;;;;;;;;;;;;;;;24.16;49.21;95668.22;10316530;28;3469;-58
2022/08/25 10:24:43;;;;;;;;;;;;;;;24.16;49.33;95660.28;10320124;28;3356;-54
2022/08/25 10:29:48;;;;;;;;;;;;;;;24.14;49.24;95668.53;10322991;28;2552;-52
2022/08/25 10:34:51;;;;;;;;;;;;;;;24.16;49.37;95661.06;10321609;28;3328;-55
2022/08/25 10:39:59;;;;;;;;;;;;;;;24.21;49.30;95653.00;10321773;28;2607;-55
2022/08/25 10:50:37;;;;;;;;;;;;;;;24.16;49.70;95642.53;10322065;28;3376;-51
2022/08/25 10:55:42;;;;;;;;;;;;;;;24.22;49.20;95651.94;10327303;28;3471;-54
2022/08/25 11:00:47;;;;;;;;;;;;;;;24.19;49.67;95649.09;10322035;28;3448;-54
2022/08/25 11:05:51;;;;;;;;;;;;;;;24.22;49.48;95638.69;10320849;28;3408;-51
2022/08/25 11:10:55;;;;;;;;;;;;;;;24.24;49.69;95631.22;10323599;28;2711;-54
2022/08/25 11:16:22;;;;;;;;;;;;;;;24.22;49.67;95633.41;10321142;28;3299;-53
2022/08/25 11:21:45;;;;;;;;;;;;;;;24.23;49.78;95629.66;10301450;28;3329;-55
2022/08/25 11:26:47;;;;;;;;;;;;;;;24.25;49.62;95632.78;10319213;28;3388;-52
2022/08/25 11:31:51;;;;;;;;;;;;;;;24.25;49.72;95621.41;10320277;28;3241;-54
2022/08/25 11:36:59;;;;;;;;;;;;;;;24.26;49.54;95612.38;10319096;28;2649;-52
2022/08/25 11:42:16;;;;;;;;;;;;;;;24.27;49.69;95613.16;10322476;28;3376;-54
2022/08/25 11:47:16;;;;;;;;;;;;;;;24.28;49.81;95601.50;10316377;28;3321;-52
2022/08/25 11:52:31;;;;;;;;;;;;;;;24.29;49.88;95598.56;10313578;28;3361;-52
2022/08/25 11:57:32;;;;;;;;;;;;;;;24.32;49.74;95605.88;10317857;28;3333;-54
2022/08/25 12:02:44;;;;;;;;;;;;;;;24.30;49.87;95599.34;10319339;28;3352;-55
2022/08/25 12:08:37;;;;;;;;;;;;;;;24.29;50.00;95600.41;10318129;28;2524;-53
2022/08/25 12:13:23;;;;;;;;;;;;;;;24.33;49.92;95596.06;10318349;28;3258;-54
2022/08/25 12:18:44;;;;;;;;;;;;;;;24.32;50.13;95607.78;10317857;28;3312;-54
2022/08/25 12:24:04;;;;;;;;;;;;;;;24.34;50.14;95600.31;10319563;28;3378;-53
2022/08/25 12:29:23;;;;;;;;;;;;;;;24.32;50.34;95599.81;10317705;28;2631;-53
2022/08/25 12:34:42;;;;;;;;;;;;;;;24.32;50.41;95603.22;10318735;28;3313;-53
2022/08/25 12:39:48;;;;;;;;;;;;;;;24.34;50.26;95597.66;10317368;28;2524;-53
2022/08/25 12:45:06;;;;;;;;;;;;;;;24.34;50.27;95593.13;10318716;28;3309;-54
2022/08/25 12:50:27;;;;;;;;;;;;;;;24.37;50.06;95597.03;10339309;28;3436;-53
2022/08/25 12:55:28;;;;;;;;;;;;;;;24.38;50.32;95588.03;10316462;28;3259;-52
2022/08/25 13:00:31;;;;;;;;;;;;;;;24.37;50.31;95597.81;10318786;28;3270;-53
2022/08/25 13:05:32;;;;;;;;;;;;;;;24.38;50.40;95591.44;10316320;28;3536;-54
2022/08/25 13:10:38;;;;;;;;;;;;;;;24.39;50.27;95584.28;10315720;28;3252;-54
2022/08/25 13:15:44;;;;;;;;;;;;;;;24.38;50.46;95572.88;10320830;28;2637;-53
2022/08/25 13:20:47;;;;;;;;;;;;;;;24.40;50.52;95560.13;10317384;28;3284;-54
2022/08/25 13:25:49;;;;;;;;;;;;;;;24.38;50.55;95566.81;10319444;28;3318;-53
2022/08/25 13:31:00;;;;;;;;;;;;;;;24.39;50.66;95565.72;10300904;28;3309;-49
2022/08/25 13:41:22;;;;;;;;;;;;;;;24.40;50.50;95556.72;10320145;28;3309;-51
2022/08/25 13:46:23;;;;;;;;;;;;;;;24.42;50.49;95549.25;10318695;28;3377;-52
2022/08/25 13:51:24;;;;;;;;;;;;;;;24.42;50.42;95551.88;10316372;28;3307;-54
2022/08/25 13:56:43;;;;;;;;;;;;;;;24.42;50.27;95552.66;10323647;28;3234;-53
2022/08/25 14:01:45;;;;;;;;;;;;;;;24.43;50.56;95550.78;10323844;28;4130;-51
2022/08/25 14:06:46;;;;;;;;;;;;;;;24.45;50.30;95545.97;10327782;28;3452;-51
2022/08/25 14:11:55;;;;;;;;;;;;;;;24.45;50.64;95544.09;10327437;28;2519;-52
2022/08/25 14:17:06;;;;;;;;;;;;;;;24.46;50.54;95540.34;10322173;28;3304;-52
2022/08/25 14:22:06;;;;;;;;;;;;;;;24.48;50.65;95546.16;10321566;28;3468;-52
2022/08/25 14:27:06;;;;;;;;;;;;;;;24.48;50.56;95545.38;10324939;28;3209;-50
2022/08/25 14:32:07;;;;;;;;;;;;;;;24.48;50.48;95540.06;10323865;28;3315;-52
2022/08/25 14:37:17;;;;;;;;;;;;;;;24.47;50.69;95543.78;10322362;28;3310;-52
2022/08/25 14:42:18;;;;;;;;;;;;;;;24.49;50.50;95534.47;10337355;28;3254;-49
2022/08/25 14:47:20;;;;;;;;;;;;;;;24.49;50.79;95531.03;10324190;28;2572;-52
2022/08/25 14:52:30;;;;;;;;;;;;;;;24.49;50.60;95534.47;10321484;28;3338;-53
2022/08/25 14:57:30;;;;;;;;;;;;;;;24.48;50.70;95524.19;10320504;28;3178;-52
2022/08/25 15:02:37;;;;;;;;;;;;;;;24.50;50.73;95530.75;10321239;28;3313;-53
2022/08/25 15:12:58;;;;;;;;;;;;;;;24.48;50.70;95522.31;10318619;28;3437;-50
2022/08/25 15:17:58;;;;;;;;;;;;;;;24.50;50.59;95514.06;10319590;28;3345;-51
2022/08/25 15:23:00;;;;;;;;;;;;;;;24.48;50.58;95522.31;10321783;28;3237;-53
2022/08/25 15:28:04;;;;;;;;;;;;;;;24.50;50.40;95535.25;10319208;28;3260;-52
2022/08/25 15:33:05;;;;;;;;;;;;;;;24.49;50.52;95520.44;10321576;28;3242;-52
2022/08/25 15:38:13;;;;;;;;;;;;;;;24.48;50.66;95524.97;10323878;28;3297;-54
2022/08/25 15:43:24;;;;;;;;;;;;;;;24.47;50.58;95517.31;10320476;28;2544;-54
2022/08/25 15:48:34;;;;;;;;;;;;;;;24.49;50.49;95515.13;10319468;28;3432;-52
2022/08/25 15:53:35;;;;;;;;;;;;;;;24.46;50.53;95500.63;10320977;28;3305;-53
2022/08/25 15:58:36;;;;;;;;;;;;;;;24.47;50.52;95498.75;10318581;28;3385;-50
2022/08/25 16:03:36;;;;;;;;;;;;;;;24.45;50.40;95491.13;10321983;28;3309;-50
2022/08/25 16:08:38;;;;;;;;;;;;;;;24.45;50.35;95491.13;10322666;28;2571;-50
2022/08/25 16:13:45;;;;;;;;;;;;;;;24.48;50.28;95489.72;10319420;28;3455;-53
2022/08/25 16:18:46;;;;;;;;;;;;;;;24.47;50.42;95486.28;10313472;28;3313;-53
2022/08/25 16:23:47;;;;;;;;;;;;;;;24.47;50.19;95483.66;10316983;28;3298;-53
2022/08/25 16:28:47;;;;;;;;;;;;;;;24.47;50.18;95480.22;10316653;28;3267;-52
2022/08/25 16:33:48;;;;;;;;;;;;;;;24.48;50.14;95476.50;10316018;28;3334;-53
2022/08/25 16:38:49;;;;;;;;;;;;;;;24.48;50.33;95484.44;10318638;28;3453;-52
2022/08/25 16:43:50;;;;;;;;;;;;;;;24.46;50.11;95478.66;10315593;28;3348;-53
2022/08/25 16:48:51;;;;;;;;;;;;;;;24.47;50.22;95480.22;10311062;28;3273;-53
2022/08/25 16:59:12;;;;;;;;;;;;;;;24.44;50.33;95478.94;10315970;28;2552;-51
2022/08/25 17:04:12;;;;;;;;;;;;;;;24.46;50.39;95490.03;10314950;28;2521;-47
2022/08/25 17:09:13;;;;;;;;;;;;;;;24.44;50.14;95492.19;10310589;28;3348;-50
2022/08/25 17:14:15;;;;;;;;;;;;;;;24.47;50.40;95490.81;10312281;28;3260;-47
2022/08/25 17:19:16;;;;;;;;;;;;;;;24.50;50.66;95487.56;10311728;28;3278;-57
2022/08/25 17:24:17;;;;;;;;;;;;;;;24.48;51.00;95489.72;10315296;28;3278;-51
2022/08/25 17:29:19;;;;;;;;;;;;;;;24.48;50.74;95489.72;10317660;28;3371;-50
2022/08/25 17:34:19;;;;;;;;;;;;;;;24.48;50.73;95482.56;10321565;28;2717;-51
2022/08/25 17:39:20;;;;;;;;;;;;;;;24.47;50.87;95493.47;10322831;28;3337;-50
2022/08/25 17:44:39;;;;;;;;;;;;;;;24.45;50.69;95491.13;10324823;28;3237;-48
2022/08/25 17:49:58;;;;;;;;;;;;;;;24.46;50.82;95486.59;10321177;28;3600;-49
2022/08/25 17:54:58;;;;;;;;;;;;;;;24.46;50.88;95491.91;10323494;28;3284;-49
2022/08/25 18:00:19;;;;;;;;;;;;;;;24.44;50.78;95486.13;10321707;28;3362;-51
2022/08/25 18:05:29;;;;;;;;;;;;;;;24.45;50.72;95485.03;10317690;28;3338;-50
2022/08/25 18:10:31;;;;;;;;;;;;;;;24.45;50.99;95491.13;10319556;28;2512;-47
2022/08/25 18:15:32;;;;;;;;;;;;;;;24.46;50.90;95499.84;10320767;28;3389;-54
2022/08/25 18:20:33;;;;;;;;;;;;;;;24.48;50.94;95497.69;10318944;28;3309;-50
2022/08/25 18:25:33;;;;;;;;;;;;;;;24.46;51.02;95508.56;10317675;28;3282;-48
2022/08/25 18:30:33;;;;;;;;;;;;;;;24.49;50.81;95496.59;10322877;28;2584;-46
2022/08/25 18:35:34;;;;;;;;;;;;;;;24.50;50.93;95514.06;10321393;28;3453;-47
2022/08/25 18:40:34;;;;;;;;;;;;;;;24.51;51.02;95510.31;10319686;28;3222;-47
2022/08/25 18:45:39;;;;;;;;;;;;;;;24.53;50.76;95511.56;10319863;28;2677;-47
2022/08/25 18:50:39;;;;;;;;;;;;;;;24.51;51.17;95518.25;10320766;28;3300;-52
2022/08/25 18:55:41;;;;;;;;;;;;;;;24.54;51.17;95523.75;10319634;28;3304;-51
2022/08/25 19:00:42;;;;;;;;;;;;;;;24.52;51.11;95517.97;10320011;28;3242;-48
2022/08/25 19:05:43;;;;;;;;;;;;;;;24.58;51.47;95522.06;10317180;28;3350;-46
2022/08/25 19:10:44;;;;;;;;;;;;;;;24.58;51.29;95518.63;10319698;28;3304;-48
2022/08/25 19:15:46;;;;;;;;;;;;;;;24.58;51.82;95515.97;10319217;28;3240;-51
2022/08/25 19:20:46;;;;;;;;;;;;;;;24.59;52.12;95512.22;10318591;28;3387;-51
2022/08/25 19:25:46;;;;;;;;;;;;;;;24.61;52.56;95510.03;10319448;28;3357;-48
2022/08/25 19:30:47;;;;;;;;;;;;;;;24.58;52.49;95514.09;10321608;28;3500;-46
2022/08/25 19:35:48;;;;;;;;;;;;;;;24.58;52.59;95515.97;10316725;28;3389;-48
2022/08/25 19:40:48;;;;;;;;;;;;;;;24.55;52.95;95524.50;10318119;28;3403;-48
2022/08/25 19:45:51;;;;;;;;;;;;;;;24.51;53.26;95518.25;10310123;28;3312;-52
2022/08/25 19:50:51;;;;;;;;;;;;;;;24.53;53.95;95527.47;10311265;28;3245;-47
2022/08/25 19:55:52;;;;;;;;;;;;;;;24.45;54.13;95522.91;10309689;28;3428;-47
2022/08/25 20:00:53;;;;;;;;;;;;;;;24.48;54.11;95524.19;10305914;28;2509;-50
2022/08/25 20:05:54;;;;;;;;;;;;;;;24.49;53.94;95523.06;10306205;28;3256;-48
2022/08/25 20:11:01;;;;;;;;;;;;;;;24.48;53.84;95518.88;10308541;28;3342;-49
2022/08/25 20:16:03;;;;;;;;;;;;;;;24.48;53.91;95522.31;10312820;28;2588;-48
2022/08/25 20:21:03;;;;;;;;;;;;;;;24.51;53.38;95532.28;10316495;28;3340;-54
2022/08/25 20:26:04;;;;;;;;;;;;;;;24.55;53.15;95527.16;10318626;28;3481;-52
2022/08/25 20:31:04;;;;;;;;;;;;;;;24.58;53.13;95527.34;10315910;28;3307;-52
2022/08/25 20:36:05;;;;;;;;;;;;;;;24.60;53.06;95529.69;10321247;28;3428;-53
2022/08/25 20:41:09;;;;;;;;;;;;;;;24.61;52.98;95531.25;10316861;28;3288;-54
2022/08/25 20:46:10;;;;;;;;;;;;;;;24.60;53.19;95522.53;10319435;28;3228;-52
2022/08/25 20:51:10;;;;;;;;;;;;;;;24.60;52.98;95532.34;10318603;28;3041;-53
2022/08/25 20:56:12;;;;;;;;;;;;;;;24.60;52.96;95535.78;10319575;28;3141;-53
2022/08/25 21:01:15;;;;;;;;;;;;;;;24.60;52.78;95527.84;10318815;28;3041;-53
2022/08/25 21:06:15;;;;;;;;;;;;;;;24.59;52.71;95523.59;10316510;28;3057;-51
2022/08/25 21:11:16;;;;;;;;;;;;;;;24.59;52.81;95520.16;10313924;28;3028;-51
2022/08/25 21:16:17;;;;;;;;;;;;;;;24.60;52.75;95521.75;10317707;28;3049;-53
2022/08/25 21:21:17;;;;;;;;;;;;;;;24.58;53.05;95519.41;10318934;28;2285;-53
2022/08/25 21:26:21;;;;;;;;;;;;;;;24.58;52.84;95527.34;10320192;28;3343;-54
2022/08/25 21:31:22;;;;;;;;;;;;;;;24.58;52.83;95518.63;10320338;28;2972;-53
2022/08/25 21:36:23;;;;;;;;;;;;;;;24.58;52.58;95519.41;10325694;28;3057;-53
2022/08/25 21:41:24;;;;;;;;;;;;;;;24.58;52.72;95521.28;10319344;28;3030;-55
2022/08/25 21:46:25;;;;;;;;;;;;;;;24.58;52.76;95519.41;10319593;28;3020;-54
2022/08/25 21:51:27;;;;;;;;;;;;;;;24.57;52.59;95523.13;10316429;28;3052;-53
2022/08/25 21:56:27;;;;;;;;;;;;;;;24.58;52.82;95518.63;10319434;28;3009;-52
2022/08/25 22:01:27;;;;;;;;;;;;;;;24.57;52.62;95525.78;10317103;28;3016;-53
2022/08/25 22:06:28;;;;;;;;;;;;;;;24.57;52.50;95517.03;10314529;28;3467;-55
2022/08/25 22:11:28;;;;;;;;;;;;;;;24.57;52.77;95517.03;10320629;28;2998;-53
2022/08/25 22:16:29;;;;;;;;;;;;;;;24.56;52.58;95515.50;10322511;28;3284;-53
2022/08/25 22:21:31;;;;;;;;;;;;;;;24.56;52.65;95515.50;10327346;28;3061;-54
2022/08/25 22:26:31;;;;;;;;;;;;;;;24.56;52.67;95510.19;10326634;28;3042;-53
2022/08/25 22:31:32;;;;;;;;;;;;;;;24.56;52.65;95504.88;10324277;28;3032;-51
2022/08/25 22:36:36;;;;;;;;;;;;;;;24.55;52.59;95500.66;10325694;28;3001;-53
2022/08/25 22:41:36;;;;;;;;;;;;;;;24.54;52.59;95505.22;10324765;28;3025;-54
2022/08/25 22:46:37;;;;;;;;;;;;;;;24.55;52.49;95503.31;10324610;28;3065;-53
2022/08/25 22:51:37;;;;;;;;;;;;;;;24.54;52.52;95491.16;10324523;28;2847;-52
2022/08/25 22:56:38;;;;;;;;;;;;;;;24.54;52.47;95494.59;10325287;28;3032;-52
2022/08/25 23:01:39;;;;;;;;;;;;;;;24.55;52.72;95498.00;10325719;28;3042;-55
2022/08/25 23:06:39;;;;;;;;;;;;;;;24.54;52.72;95488.50;10324023;28;3064;-54
2022/08/25 23:11:40;;;;;;;;;;;;;;;24.54;52.83;95491.16;10323582;28;2996;-53
2022/08/25 23:16:40;;;;;;;;;;;;;;;24.53;52.72;95477.13;10325565;28;3074;-52
2022/08/25 23:27:00;;;;;;;;;;;;;;;24.53;52.75;95473.69;10323284;28;2961;-53
2022/08/25 23:32:01;;;;;;;;;;;;;;;24.53;52.67;95473.69;10327588;28;3036;-52
2022/08/25 23:37:01;;;;;;;;;;;;;;;24.53;52.72;95465.75;10326079;28;3291;-54
2022/08/25 23:42:02;;;;;;;;;;;;;;;24.53;52.73;95471.03;10322197;28;2994;-53
2022/08/25 23:47:03;;;;;;;;;;;;;;;24.52;52.54;95458.88;10320197;28;2320;-50
2022/08/25 23:52:04;;;;;;;;;;;;;;;24.52;52.86;95459.69;10320970;28;2970;-55
2022/08/25 23:57:04;;;;;;;;;;;;;;;24.51;52.59;95458.09;10324234;28;2296;-53
